createdAt,value
2022-11-25T00:01:55.382Z,2.80
2022-11-25T00:04:29.128Z,2.80
2022-11-25T00:07:07.332Z,2.80
2022-11-25T00:09:39.426Z,2.80
2022-11-25T00:12:11.408Z,2.80
2022-11-25T00:14:43.341Z,2.80
2022-11-25T00:17:15.456Z,2.70
2022-11-25T00:19:48.969Z,2.70
2022-11-25T00:22:21.835Z,2.70
2022-11-25T00:24:54.122Z,2.70
2022-11-25T00:27:26.196Z,2.70
2022-11-25T00:29:58.250Z,2.70
2022-11-25T00:32:30.280Z,2.60
2022-11-25T00:35:02.550Z,2.60
2022-11-25T00:37:34.942Z,2.60
2022-11-25T00:40:07.546Z,2.60
2022-11-25T00:42:58.452Z,2.50
2022-11-25T00:45:50.296Z,2.50
2022-11-25T00:48:22.669Z,2.50
2022-11-25T00:50:54.659Z,2.50
2022-11-25T00:53:26.598Z,2.50
2022-11-25T00:56:14.805Z,2.50
2022-11-25T00:58:47.547Z,2.60
2022-11-25T01:01:20.502Z,2.60
2022-11-25T01:03:53.894Z,2.60
2022-11-25T01:06:26.138Z,2.60
2022-11-25T01:08:58.354Z,2.70
2022-11-25T01:11:30.765Z,2.70
2022-11-25T01:14:03.605Z,2.70
2022-11-25T01:16:36.244Z,2.70
2022-11-25T01:19:08.537Z,2.70
2022-11-25T01:21:42.440Z,2.70
2022-11-25T01:24:24.151Z,2.70
2022-11-25T01:26:57.129Z,2.70
2022-11-25T01:29:29.171Z,2.80
2022-11-25T01:32:01.381Z,2.80
2022-11-25T01:34:34.729Z,2.80
2022-11-25T01:37:07.855Z,2.80
2022-11-25T01:39:39.919Z,2.80
2022-11-25T01:42:11.820Z,2.80
2022-11-25T01:44:43.884Z,2.80
2022-11-25T01:47:35.632Z,2.80
2022-11-25T01:50:11.874Z,2.80
2022-11-25T01:52:50.492Z,2.90
2022-11-25T01:55:32.074Z,2.90
2022-11-25T01:58:36.104Z,2.90
2022-11-25T02:01:09.045Z,3.00
2022-11-25T02:03:44.364Z,3.00
2022-11-25T02:06:25.911Z,3.10
2022-11-25T02:09:08.879Z,3.00
2022-11-25T02:11:44.074Z,3.10
2022-11-25T02:14:19.764Z,3.00
2022-11-25T02:16:53.158Z,3.10
2022-11-25T02:19:42.276Z,3.00
2022-11-25T02:22:55.868Z,3.00
2022-11-25T02:25:48.012Z,3.00
2022-11-25T02:28:23.468Z,3.00
2022-11-25T02:30:58.689Z,3.00
2022-11-25T02:33:30.947Z,3.00
2022-11-25T02:36:15.849Z,3.00
2022-11-25T02:38:56.792Z,2.90
2022-11-25T02:41:30.123Z,2.90
2022-11-25T02:44:06.665Z,2.90
2022-11-25T02:46:39.029Z,2.90
2022-11-25T02:49:11.263Z,2.90
2022-11-25T02:51:45.269Z,2.80
2022-11-25T02:54:37.243Z,2.80
2022-11-25T02:57:09.637Z,2.80
2022-11-25T02:59:41.551Z,2.80
2022-11-25T03:02:13.687Z,2.80
2022-11-25T03:04:46.385Z,2.80
2022-11-25T03:07:18.497Z,2.80
2022-11-25T03:09:50.531Z,2.80
2022-11-25T03:12:22.625Z,2.80
2022-11-25T03:14:54.687Z,2.80
2022-11-25T03:17:26.766Z,2.80
2022-11-25T03:19:59.400Z,2.80
2022-11-25T03:22:31.445Z,2.80
2022-11-25T03:25:03.677Z,2.80
2022-11-25T03:27:37.137Z,2.80
2022-11-25T03:30:14.664Z,2.80
2022-11-25T03:32:50.115Z,2.80
2022-11-25T03:35:23.331Z,2.70
2022-11-25T03:37:55.606Z,2.80
2022-11-25T03:40:27.527Z,2.80
2022-11-25T03:42:59.479Z,2.80
2022-11-25T03:45:31.746Z,2.80
2022-11-25T03:48:04.949Z,2.90
2022-11-25T03:50:36.890Z,2.80
2022-11-25T03:53:09.016Z,2.80
2022-11-25T03:55:40.956Z,2.90
2022-11-25T03:58:12.929Z,2.90
2022-11-25T04:00:44.818Z,2.90
2022-11-25T04:03:16.808Z,2.80
2022-11-25T04:05:48.787Z,2.80
2022-11-25T04:08:21.740Z,2.80
2022-11-25T04:10:54.884Z,2.80
2022-11-25T04:13:26.895Z,2.80
2022-11-25T04:15:59.282Z,2.80
2022-11-25T04:18:31.324Z,2.80
2022-11-25T04:21:03.501Z,2.80
2022-11-25T04:23:35.644Z,2.80
2022-11-25T04:26:07.635Z,2.70
2022-11-25T04:28:39.670Z,2.70
2022-11-25T04:31:11.832Z,2.70
2022-11-25T04:33:46.041Z,2.70
2022-11-25T04:36:21.864Z,2.70
2022-11-25T04:38:54.744Z,2.70
2022-11-25T04:41:26.870Z,2.70
2022-11-25T04:44:01.616Z,2.70
2022-11-25T04:46:39.585Z,2.80
2022-11-25T04:49:12.921Z,2.80
2022-11-25T04:51:44.934Z,2.80
2022-11-25T04:54:17.640Z,2.80
2022-11-25T04:56:49.816Z,2.80
2022-11-25T04:59:40.030Z,2.90
2022-11-25T05:02:15.153Z,2.90
2022-11-25T05:04:51.709Z,3.00
2022-11-25T05:07:27.947Z,3.10
2022-11-25T05:10:00.098Z,3.10
2022-11-25T05:12:32.361Z,3.10
2022-11-25T05:15:06.451Z,3.20
2022-11-25T05:17:39.826Z,3.20
2022-11-25T05:20:12.207Z,3.20
2022-11-25T05:22:44.190Z,3.20
2022-11-25T05:25:16.691Z,3.20
2022-11-25T05:27:48.746Z,3.20
2022-11-25T05:30:20.717Z,3.20
2022-11-25T05:32:53.251Z,3.10
2022-11-25T05:35:25.484Z,3.10
2022-11-25T05:37:57.594Z,3.10
2022-11-25T05:40:32.178Z,3.10
2022-11-25T05:43:04.447Z,3.00
2022-11-25T05:45:39.359Z,3.00
2022-11-25T05:48:12.018Z,3.00
2022-11-25T05:50:44.153Z,2.90
2022-11-25T05:53:17.515Z,2.90
2022-11-25T05:55:57.711Z,2.90
2022-11-25T05:58:33.613Z,2.90
2022-11-25T06:01:13.697Z,2.90
2022-11-25T06:03:47.603Z,2.90
2022-11-25T06:06:20.356Z,2.80
2022-11-25T06:08:52.724Z,2.80
2022-11-25T06:11:25.688Z,2.80
2022-11-25T06:13:58.636Z,2.70
2022-11-25T06:16:30.725Z,2.70
2022-11-25T06:19:05.687Z,2.70
2022-11-25T06:21:37.921Z,2.60
2022-11-25T06:24:09.937Z,2.60
2022-11-25T06:26:42.205Z,2.50
2022-11-25T06:29:14.345Z,2.50
2022-11-25T06:31:46.318Z,2.50
2022-11-25T06:34:20.271Z,2.50
2022-11-25T06:36:52.393Z,2.40
2022-11-25T06:39:24.934Z,2.40
2022-11-25T06:41:56.803Z,2.40
2022-11-25T06:44:28.714Z,2.40
2022-11-25T06:47:00.555Z,2.40
2022-11-25T06:49:32.537Z,2.50
2022-11-25T06:52:04.635Z,2.50
2022-11-25T06:54:41.101Z,2.50
2022-11-25T06:57:17.614Z,2.50
2022-11-25T06:59:51.306Z,2.50
2022-11-25T07:02:23.395Z,2.50
2022-11-25T07:04:55.416Z,2.50
2022-11-25T07:07:27.872Z,2.60
2022-11-25T07:09:59.964Z,2.60
2022-11-25T07:12:32.152Z,2.70
2022-11-25T07:15:04.450Z,2.70
2022-11-25T07:17:36.898Z,2.80
2022-11-25T07:20:09.417Z,2.90
2022-11-25T07:22:42.576Z,2.90
2022-11-25T07:25:14.637Z,3.00
2022-11-25T07:27:46.864Z,3.00
2022-11-25T07:31:09.755Z,3.10
2022-11-25T07:33:11.030Z,3.10
2022-11-25T07:35:43.503Z,3.20
2022-11-25T07:38:16.633Z,3.20
2022-11-25T07:40:50.581Z,3.30
2022-11-25T07:43:22.660Z,3.30
2022-11-25T07:45:55.306Z,3.40
2022-11-25T07:48:28.888Z,3.50
2022-11-25T07:51:01.203Z,3.50
2022-11-25T07:53:33.869Z,3.60
2022-11-25T07:56:06.483Z,3.60
2022-11-25T07:58:44.389Z,3.60
2022-11-25T08:01:19.787Z,3.70
2022-11-25T08:03:53.896Z,3.70
2022-11-25T08:06:29.244Z,3.80
2022-11-25T08:09:02.211Z,3.80
2022-11-25T08:11:35.219Z,3.80
2022-11-25T08:14:08.709Z,3.90
2022-11-25T08:16:42.144Z,4.00
2022-11-25T08:19:17.997Z,4.00
2022-11-25T08:21:51.276Z,4.00
2022-11-25T08:24:23.982Z,4.10
2022-11-25T08:26:58.941Z,4.10
2022-11-25T08:29:33.035Z,4.10
2022-11-25T08:32:11.781Z,4.20
2022-11-25T08:34:44.666Z,4.20
2022-11-25T08:37:17.529Z,4.30
2022-11-25T08:39:53.275Z,4.40
2022-11-25T08:42:27.006Z,4.40
2022-11-25T08:44:59.411Z,4.50
2022-11-25T08:47:32.845Z,4.50
2022-11-25T08:50:10.663Z,4.60
2022-11-25T08:52:45.790Z,4.70
2022-11-25T08:55:18.152Z,4.80
2022-11-25T08:57:50.477Z,4.80
2022-11-25T09:00:23.464Z,4.90
2022-11-25T09:02:56.865Z,4.90
2022-11-25T09:05:35.803Z,5.00
2022-11-25T09:08:13.908Z,5.10
2022-11-25T09:10:46.615Z,5.20
2022-11-25T09:13:19.231Z,5.30
2022-11-25T09:15:51.690Z,5.40
2022-11-25T09:18:26.551Z,5.60
2022-11-25T09:21:12.121Z,5.70
2022-11-25T09:23:49.968Z,5.80
2022-11-25T09:26:26.262Z,6.00
2022-11-25T09:29:01.801Z,6.10
2022-11-25T09:31:35.920Z,6.20
2022-11-25T09:34:10.207Z,6.30
2022-11-25T09:36:44.659Z,6.40
2022-11-25T09:39:17.297Z,6.50
2022-11-25T09:42:46.807Z,6.50
2022-11-25T09:46:09.368Z,6.60
2022-11-25T09:49:20.009Z,6.60
2022-11-25T09:52:11.907Z,6.70
2022-11-25T09:55:14.313Z,6.80
2022-11-25T09:58:12.209Z,6.90
2022-11-25T10:01:15.435Z,6.90
2022-11-25T10:03:56.900Z,7.10
2022-11-25T10:06:54.926Z,7.20
2022-11-25T10:09:35.640Z,7.30
2022-11-25T10:12:28.125Z,7.40
2022-11-25T10:15:14.224Z,7.50
2022-11-25T10:17:57.758Z,7.60
2022-11-25T10:20:39.299Z,7.70
2022-11-25T10:23:27.858Z,7.70
2022-11-25T10:26:15.390Z,7.70
2022-11-25T10:29:17.947Z,7.70
2022-11-25T10:32:11.056Z,7.80
2022-11-25T10:35:12.252Z,7.80
2022-11-25T10:37:58.767Z,7.90
2022-11-25T10:40:34.546Z,8.00
2022-11-25T10:43:16.201Z,8.00
2022-11-25T10:46:08.887Z,8.00
2022-11-25T10:49:15.421Z,8.00
2022-11-25T10:51:59.861Z,8.00
2022-11-25T10:54:35.303Z,8.10
2022-11-25T10:57:29.072Z,8.10
2022-11-25T11:00:01.933Z,8.10
2022-11-25T11:02:39.854Z,8.20
2022-11-25T11:05:12.748Z,8.20
2022-11-25T11:08:10.520Z,8.30
2022-11-25T11:11:28.346Z,8.30
2022-11-25T11:14:19.152Z,8.30
2022-11-25T11:16:55.699Z,8.30
2022-11-25T11:19:31.119Z,8.30
2022-11-25T11:22:18.227Z,8.20
2022-11-25T11:25:27.660Z,8.20
2022-11-25T11:28:23.956Z,8.20
2022-11-25T11:31:26.539Z,8.20
2022-11-25T11:34:37.681Z,8.20
2022-11-25T11:37:46.221Z,8.10
2022-11-25T11:40:46.625Z,8.20
2022-11-25T11:43:27.637Z,8.10
2022-11-25T11:46:50.496Z,8.20
2022-11-25T11:50:09.416Z,8.10
2022-11-25T11:53:38.900Z,8.10
2022-11-25T11:56:55.399Z,8.00
2022-11-25T11:59:53.481Z,8.00
2022-11-25T12:02:41.251Z,8.00
2022-11-25T12:05:37.474Z,7.90
2022-11-25T12:08:38.346Z,7.90
2022-11-25T12:11:25.887Z,7.90
2022-11-25T12:14:26.793Z,7.90
2022-11-25T12:17:19.288Z,7.80
2022-11-25T12:20:37.068Z,7.80
2022-11-25T12:23:46.324Z,7.80
2022-11-25T12:26:51.453Z,7.90
2022-11-25T12:29:44.238Z,7.90
2022-11-25T12:32:38.911Z,7.90
2022-11-25T12:35:58.868Z,7.90
2022-11-25T12:38:57.149Z,7.90
2022-11-25T12:41:53.595Z,7.90
2022-11-25T12:44:36.560Z,7.90
2022-11-25T12:47:28.972Z,7.90
2022-11-25T12:50:02.264Z,7.80
2022-11-25T12:53:00.030Z,7.90
2022-11-25T12:55:53.814Z,7.80
2022-11-25T12:58:35.369Z,7.80
2022-11-25T13:01:25.528Z,7.80
2022-11-25T13:04:45.113Z,7.80
2022-11-25T13:08:17.429Z,7.70
2022-11-25T13:11:46.921Z,7.80
2022-11-25T13:15:00.964Z,7.70
2022-11-25T13:18:02.107Z,7.80
2022-11-25T13:20:45.483Z,7.80
2022-11-25T13:23:22.601Z,7.80
2022-11-25T13:26:44.184Z,7.90
2022-11-25T13:29:19.149Z,7.90
2022-11-25T13:32:35.399Z,8.00
2022-11-25T13:35:27.221Z,8.10
2022-11-25T13:38:08.448Z,8.10
2022-11-25T13:41:03.675Z,8.10
2022-11-25T13:44:15.034Z,8.20
2022-11-25T13:46:58.540Z,8.10
2022-11-25T13:49:55.511Z,8.10
2022-11-25T13:52:45.504Z,8.20
2022-11-25T13:55:20.831Z,8.20
2022-11-25T13:58:20.984Z,8.20
2022-11-25T14:01:06.354Z,8.30
2022-11-25T14:03:57.873Z,8.30
2022-11-25T14:06:59.241Z,8.40
2022-11-25T14:09:55.021Z,8.40
2022-11-25T14:12:50.351Z,8.40
2022-11-25T14:15:53.221Z,8.40
2022-11-25T14:19:43.263Z,8.40
2022-11-25T14:22:35.871Z,8.50
2022-11-25T14:25:33.339Z,8.50
2022-11-25T14:28:27.698Z,8.60
2022-11-25T14:31:14.900Z,8.60
2022-11-25T14:34:04.409Z,8.50
2022-11-25T14:36:51.605Z,8.50
2022-11-25T14:40:10.969Z,8.40
2022-11-25T14:42:59.582Z,8.50
2022-11-25T14:45:45.674Z,8.40
2022-11-25T14:48:22.989Z,8.40
2022-11-25T14:51:04.471Z,8.40
2022-11-25T14:53:48.442Z,8.40
2022-11-25T14:56:26.582Z,8.40
2022-11-25T14:59:02.424Z,8.40
2022-11-25T15:01:36.852Z,8.40
2022-11-25T15:04:17.819Z,8.30
2022-11-25T15:07:01.062Z,8.30
2022-11-25T15:09:50.002Z,8.30
2022-11-25T15:12:25.104Z,8.30
2022-11-25T15:15:03.030Z,8.30
2022-11-25T15:17:39.754Z,8.30
2022-11-25T15:20:20.199Z,8.20
2022-11-25T15:22:55.370Z,8.20
2022-11-25T15:25:28.004Z,8.20
2022-11-25T15:28:00.866Z,8.20
2022-11-25T15:31:00.926Z,8.20
2022-11-25T15:33:41.535Z,8.20
2022-11-25T15:36:14.844Z,8.10
2022-11-25T15:38:47.608Z,8.10
2022-11-25T15:41:30.487Z,8.10
2022-11-25T15:44:06.813Z,8.10
2022-11-25T15:47:15.313Z,8.10
2022-11-25T15:50:23.872Z,8.10
2022-11-25T15:53:00.500Z,8.10
2022-11-25T15:55:39.852Z,8.10
2022-11-25T15:58:21.927Z,8.10
2022-11-25T16:01:05.804Z,8.10
2022-11-25T16:03:52.397Z,8.10
2022-11-25T16:07:00.305Z,8.10
2022-11-25T16:09:34.894Z,8.10
2022-11-25T16:12:17.448Z,8.10
2022-11-25T16:14:50.230Z,8.00
2022-11-25T16:17:22.461Z,8.10
2022-11-25T16:19:54.568Z,8.00
2022-11-25T16:22:28.981Z,8.00
2022-11-25T16:25:02.906Z,8.00
2022-11-25T16:27:41.543Z,8.00
2022-11-25T16:30:20.043Z,8.00
2022-11-25T16:32:52.840Z,8.00
2022-11-25T16:35:25.435Z,8.00
2022-11-25T16:37:58.958Z,8.00
2022-11-25T16:40:32.238Z,8.00
2022-11-25T16:43:22.640Z,8.00
2022-11-25T16:45:59.026Z,8.00
2022-11-25T16:48:32.094Z,7.90
2022-11-25T16:51:29.337Z,7.90
2022-11-25T16:54:01.633Z,7.90
2022-11-25T16:56:37.636Z,7.80
2022-11-25T16:59:35.279Z,7.80
2022-11-25T17:02:21.945Z,7.80
2022-11-25T17:04:54.481Z,7.70
2022-11-25T17:07:35.755Z,7.70
2022-11-25T17:10:09.761Z,7.70
2022-11-25T17:12:45.293Z,7.70
2022-11-25T17:15:27.815Z,7.60
2022-11-25T17:18:07.114Z,7.60
2022-11-25T17:20:43.821Z,7.60
2022-11-25T17:23:17.675Z,7.60
2022-11-25T17:25:50.413Z,7.60
2022-11-25T17:28:22.725Z,7.60
2022-11-25T17:30:57.534Z,7.60
2022-11-25T17:33:30.633Z,7.60
2022-11-25T17:36:05.663Z,7.70
2022-11-25T17:38:41.885Z,7.70
2022-11-25T17:41:15.689Z,7.70
2022-11-25T17:43:52.025Z,7.70
2022-11-25T17:46:29.709Z,7.80
2022-11-25T17:49:02.948Z,7.80
2022-11-25T17:51:37.458Z,7.70
2022-11-25T17:54:11.525Z,7.70
2022-11-25T17:56:51.850Z,7.70
2022-11-25T17:59:28.559Z,7.70
2022-11-25T18:02:03.094Z,7.70
2022-11-25T18:04:47.705Z,7.70
2022-11-25T18:07:20.061Z,7.70
2022-11-25T18:09:53.487Z,7.70
2022-11-25T18:12:30.899Z,7.70
2022-11-25T18:15:11.027Z,7.70
2022-11-25T18:17:51.340Z,7.70
2022-11-25T18:20:34.892Z,7.70
2022-11-25T18:23:10.044Z,7.70
2022-11-25T18:25:44.617Z,7.70
2022-11-25T18:28:20.801Z,7.70
2022-11-25T18:31:00.118Z,7.70
2022-11-25T18:33:35.703Z,7.70
2022-11-25T18:36:14.098Z,7.70
2022-11-25T18:38:48.785Z,7.70
2022-11-25T18:41:23.930Z,7.80
2022-11-25T18:44:01.069Z,7.80
2022-11-25T18:46:40.912Z,7.80
2022-11-25T18:49:14.980Z,7.80
2022-11-25T18:51:48.892Z,7.80
2022-11-25T18:54:21.645Z,7.80
2022-11-25T18:56:55.441Z,7.80
2022-11-25T18:59:34.816Z,7.70
2022-11-25T19:02:19.082Z,7.70
2022-11-25T19:04:51.618Z,7.70
2022-11-25T19:07:25.385Z,7.60
2022-11-25T19:09:58.463Z,7.60
2022-11-25T19:12:31.790Z,7.60
2022-11-25T19:15:06.508Z,7.60
2022-11-25T19:17:45.144Z,7.50
2022-11-25T19:20:23.094Z,7.50
2022-11-25T19:23:01.233Z,7.50
2022-11-25T19:25:50.059Z,7.40
2022-11-25T19:28:27.342Z,7.40
2022-11-25T19:31:04.618Z,7.50
2022-11-25T19:33:40.305Z,7.50
2022-11-25T19:36:24.910Z,7.50
2022-11-25T19:38:59.142Z,7.50
2022-11-25T19:41:31.697Z,7.50
2022-11-25T19:44:04.140Z,7.50
2022-11-25T19:47:12.999Z,7.50
2022-11-25T19:49:35.518Z,7.50
2022-11-25T19:52:19.763Z,7.50
2022-11-25T19:54:54.847Z,7.50
2022-11-25T19:57:28.719Z,7.60
2022-11-25T20:00:01.225Z,7.50
2022-11-25T20:02:34.143Z,7.60
2022-11-25T20:05:08.876Z,7.60
2022-11-25T20:07:50.916Z,7.60
2022-11-25T20:10:27.149Z,7.60
2022-11-25T20:13:01.064Z,7.50
2022-11-25T20:15:34.139Z,7.50
2022-11-25T20:18:18.348Z,7.60
2022-11-25T20:21:04.195Z,7.60
2022-11-25T20:23:45.046Z,7.50
2022-11-25T20:26:31.743Z,7.50
2022-11-25T20:29:21.915Z,7.50
2022-11-25T20:31:58.156Z,7.40
2022-11-25T20:34:36.172Z,7.40
2022-11-25T20:37:16.150Z,7.40
2022-11-25T20:40:00.936Z,7.30
2022-11-25T20:42:33.416Z,7.30
2022-11-25T20:45:13.378Z,7.30
2022-11-25T20:47:53.305Z,7.30
2022-11-25T20:50:30.957Z,7.30
2022-11-25T20:53:08.222Z,7.30
2022-11-25T20:56:02.498Z,7.30
2022-11-25T20:58:38.162Z,7.20
2022-11-25T21:01:11.495Z,7.20
2022-11-25T21:03:49.699Z,7.20
2022-11-25T21:06:32.700Z,7.10
2022-11-25T21:09:16.593Z,7.10
2022-11-25T21:11:53.140Z,7.10
2022-11-25T21:14:35.176Z,7.10
2022-11-25T21:17:08.821Z,7.00
2022-11-25T21:19:42.617Z,7.00
2022-11-25T21:22:16.416Z,7.00
2022-11-25T21:24:54.931Z,7.00
2022-11-25T21:27:29.804Z,7.00
2022-11-25T21:30:02.861Z,7.00
2022-11-25T21:32:35.613Z,6.90
2022-11-25T21:35:10.779Z,6.90
2022-11-25T21:37:45.380Z,6.90
2022-11-25T21:40:27.191Z,6.90
2022-11-25T21:43:21.972Z,6.90
2022-11-25T21:46:07.406Z,6.80
2022-11-25T21:48:45.575Z,6.80
2022-11-25T21:51:25.217Z,6.80
2022-11-25T21:53:57.559Z,6.80
2022-11-25T21:56:34.591Z,6.80
2022-11-25T21:59:08.416Z,6.80
2022-11-25T22:01:49.451Z,6.80
2022-11-25T22:04:24.775Z,6.80
2022-11-25T22:06:56.752Z,6.70
2022-11-25T22:09:32.024Z,6.70
2022-11-25T22:12:05.825Z,6.70
2022-11-25T22:14:54.830Z,6.70
2022-11-25T22:17:30.336Z,6.70
2022-11-25T22:20:03.956Z,6.70
2022-11-25T22:22:48.299Z,6.70
2022-11-25T22:25:20.610Z,6.70
2022-11-25T22:27:54.221Z,6.80
2022-11-25T22:30:26.606Z,6.80
2022-11-25T22:33:02.636Z,6.80
2022-11-25T22:35:35.179Z,6.80
2022-11-25T22:38:15.246Z,6.80
2022-11-25T22:40:54.584Z,6.80
2022-11-25T22:43:38.554Z,6.80
2022-11-25T22:46:15.542Z,6.70
2022-11-25T22:48:48.296Z,6.70
2022-11-25T22:51:26.331Z,6.70
2022-11-25T22:53:58.887Z,6.70
2022-11-25T22:56:30.806Z,6.70
2022-11-25T22:59:02.737Z,6.60
2022-11-25T23:01:34.743Z,6.60
2022-11-25T23:04:13.708Z,6.60
2022-11-25T23:06:49.462Z,6.60
2022-11-25T23:09:22.093Z,6.60
2022-11-25T23:11:54.863Z,6.60
2022-11-25T23:14:27.056Z,6.60
2022-11-25T23:16:59.353Z,6.60
2022-11-25T23:19:31.622Z,6.60
2022-11-25T23:22:10.079Z,6.60
2022-11-25T23:24:47.632Z,6.70
2022-11-25T23:27:20.368Z,6.70
2022-11-25T23:29:52.493Z,6.80
2022-11-25T23:32:24.404Z,6.80
2022-11-25T23:34:56.474Z,6.80
2022-11-25T23:37:28.763Z,6.80
2022-11-25T23:40:00.860Z,6.80
2022-11-25T23:42:34.662Z,6.80
2022-11-25T23:45:09.617Z,6.80
2022-11-25T23:47:52.879Z,6.70
2022-11-25T23:50:30.747Z,6.70
2022-11-25T23:53:11.779Z,6.70
2022-11-25T23:55:52.517Z,6.60
2022-11-25T23:58:24.735Z,6.60
